createdAt,value
2023-01-17T00:00:30.685Z,90.29
2023-01-17T00:01:30.691Z,89.77
2023-01-17T00:02:30.753Z,90.91
2023-01-17T00:03:30.687Z,91.02
2023-01-17T00:04:30.636Z,90.70
2023-01-17T00:05:30.635Z,90.33
2023-01-17T00:06:30.639Z,90.60
2023-01-17T00:07:30.672Z,90.85
2023-01-17T00:08:30.607Z,90.64
2023-01-17T00:09:30.600Z,90.19
2023-01-17T00:10:30.581Z,90.44
2023-01-17T00:11:30.584Z,90.81
2023-01-17T00:12:30.569Z,90.08
2023-01-17T00:13:30.547Z,90.85
2023-01-17T00:14:30.528Z,90.33
2023-01-17T00:15:30.526Z,89.70
2023-01-17T00:16:30.513Z,89.92
2023-01-17T00:17:30.501Z,88.87
2023-01-17T00:18:30.509Z,88.84
2023-01-17T00:19:30.490Z,90.50
2023-01-17T00:20:30.482Z,88.98
2023-01-17T00:21:30.457Z,88.00
2023-01-17T00:22:30.454Z,88.52
2023-01-17T00:23:30.456Z,88.21
2023-01-17T00:24:30.453Z,88.31
2023-01-17T00:25:30.421Z,87.17
2023-01-17T00:26:30.484Z,87.59
2023-01-17T00:27:30.384Z,86.24
2023-01-17T00:28:30.413Z,86.76
2023-01-17T00:29:30.372Z,86.55
2023-01-17T00:30:30.365Z,87.48
2023-01-17T00:31:30.413Z,86.65
2023-01-17T00:32:30.367Z,87.17
2023-01-17T00:33:30.353Z,88.10
2023-01-17T00:34:30.362Z,88.00
2023-01-17T00:35:30.338Z,88.73
2023-01-17T00:36:30.304Z,88.21
2023-01-17T00:37:30.287Z,87.69
2023-01-17T00:38:30.290Z,88.73
2023-01-17T00:39:30.322Z,87.69
2023-01-17T00:40:30.282Z,87.69
2023-01-17T00:41:30.245Z,87.69
2023-01-17T00:42:30.239Z,87.38
2023-01-17T00:43:30.253Z,87.17
2023-01-17T00:44:30.231Z,87.27
2023-01-17T00:45:30.231Z,87.38
2023-01-17T00:46:30.220Z,87.48
2023-01-17T00:47:30.218Z,87.79
2023-01-17T00:48:30.229Z,87.38
2023-01-17T00:49:30.227Z,88.00
2023-01-17T00:50:30.179Z,87.79
2023-01-17T00:51:30.153Z,87.63
2023-01-17T00:52:30.161Z,88.31
2023-01-17T00:53:30.143Z,88.15
2023-01-17T00:54:30.168Z,87.84
2023-01-17T00:55:30.137Z,89.08
2023-01-17T00:56:30.115Z,88.87
2023-01-17T00:57:30.123Z,88.46
2023-01-17T00:58:30.116Z,88.35
2023-01-17T00:59:30.082Z,87.94
2023-01-17T01:00:30.162Z,88.15
2023-01-17T01:01:30.200Z,87.94
2023-01-17T01:02:30.090Z,88.35
2023-01-17T01:03:30.112Z,88.67
2023-01-17T01:04:30.025Z,88.25
2023-01-17T01:05:30.035Z,88.04
2023-01-17T01:06:30.018Z,88.15
2023-01-17T01:07:30.014Z,88.35
2023-01-17T01:08:30.481Z,88.67
2023-01-17T01:09:29.974Z,88.15
2023-01-17T01:10:29.959Z,88.98
2023-01-17T01:11:29.957Z,88.56
2023-01-17T01:12:29.947Z,88.67
2023-01-17T01:13:29.976Z,89.29
2023-01-17T01:14:29.915Z,89.18
2023-01-17T01:15:29.902Z,89.08
2023-01-17T01:16:29.936Z,89.92
2023-01-17T01:17:29.904Z,90.12
2023-01-17T01:18:29.924Z,89.70
2023-01-17T01:19:29.906Z,90.02
2023-01-17T01:20:29.870Z,90.12
2023-01-17T01:21:29.880Z,90.12
2023-01-17T01:22:29.839Z,90.54
2023-01-17T01:23:29.838Z,90.02
2023-01-17T01:24:29.898Z,90.75
2023-01-17T01:25:29.813Z,90.64
2023-01-17T01:26:29.849Z,90.58
2023-01-17T01:27:29.816Z,89.92
2023-01-17T01:28:29.809Z,90.37
2023-01-17T01:29:29.857Z,90.44
2023-01-17T01:30:29.773Z,90.54
2023-01-17T01:31:29.845Z,89.95
2023-01-17T01:32:29.768Z,89.85
2023-01-17T01:33:29.720Z,90.02
2023-01-17T01:34:29.755Z,89.95
2023-01-17T01:35:29.706Z,90.58
2023-01-17T01:36:29.725Z,89.33
2023-01-17T01:37:29.695Z,89.75
2023-01-17T01:38:29.693Z,89.70
2023-01-17T01:39:29.739Z,89.85
2023-01-17T01:40:29.673Z,90.06
2023-01-17T01:41:29.647Z,90.58
2023-01-17T01:42:29.640Z,89.85
2023-01-17T01:43:29.703Z,89.75
2023-01-17T01:44:29.691Z,90.16
2023-01-17T01:45:29.632Z,90.26
2023-01-17T01:46:29.610Z,90.26
2023-01-17T01:47:29.575Z,90.37
2023-01-17T01:48:29.581Z,89.75
2023-01-17T01:49:29.642Z,90.06
2023-01-17T01:50:29.545Z,89.85
2023-01-17T01:51:29.549Z,89.39
2023-01-17T01:52:29.522Z,89.29
2023-01-17T01:53:29.521Z,89.39
2023-01-17T01:54:29.546Z,89.29
2023-01-17T01:55:29.512Z,89.60
2023-01-17T01:56:29.483Z,89.81
2023-01-17T01:57:29.517Z,88.98
2023-01-17T01:58:29.479Z,88.87
2023-01-17T01:59:29.480Z,88.56
2023-01-17T02:00:29.478Z,87.32
2023-01-17T02:01:29.567Z,87.42
2023-01-17T02:02:29.425Z,87.63
2023-01-17T02:03:29.539Z,87.52
2023-01-17T02:04:29.424Z,86.69
2023-01-17T02:05:29.431Z,85.93
2023-01-17T02:06:29.390Z,86.34
2023-01-17T02:07:29.388Z,86.13
2023-01-17T02:08:29.369Z,85.30
2023-01-17T02:09:29.389Z,85.51
2023-01-17T02:10:29.455Z,85.20
2023-01-17T02:11:29.334Z,85.10
2023-01-17T02:12:29.333Z,85.30
2023-01-17T02:13:29.343Z,85.41
2023-01-17T02:14:29.341Z,84.99
2023-01-17T02:15:29.315Z,85.51
2023-01-17T02:16:29.300Z,84.78
2023-01-17T02:17:29.301Z,84.89
2023-01-17T02:18:29.258Z,84.99
2023-01-17T02:19:29.264Z,84.99
2023-01-17T02:20:29.308Z,84.99
2023-01-17T02:21:29.273Z,84.99
2023-01-17T02:22:29.247Z,84.47
2023-01-17T02:23:29.241Z,84.27
2023-01-17T02:24:29.205Z,84.37
2023-01-17T02:25:29.228Z,84.37
2023-01-17T02:26:29.192Z,84.27
2023-01-17T02:27:29.195Z,84.47
2023-01-17T02:28:29.216Z,84.37
2023-01-17T02:29:29.154Z,84.16
2023-01-17T02:30:29.165Z,83.95
2023-01-17T02:31:29.173Z,84.16
2023-01-17T02:32:29.118Z,84.37
2023-01-17T02:33:29.128Z,84.16
2023-01-17T02:34:29.100Z,84.05
2023-01-17T02:35:29.126Z,84.47
2023-01-17T02:36:29.105Z,84.05
2023-01-17T02:37:29.087Z,84.27
2023-01-17T02:38:29.110Z,84.16
2023-01-17T02:39:29.085Z,84.89
2023-01-17T02:40:29.045Z,84.78
2023-01-17T02:41:29.086Z,84.78
2023-01-17T02:42:29.039Z,84.51
2023-01-17T02:43:29.040Z,84.61
2023-01-17T02:44:29.064Z,84.61
2023-01-17T02:45:29.058Z,84.05
2023-01-17T02:46:29.001Z,84.30
2023-01-17T02:47:28.983Z,84.41
2023-01-17T02:48:28.966Z,84.37
2023-01-17T02:49:28.960Z,85.03
2023-01-17T02:50:28.966Z,85.13
2023-01-17T02:51:28.937Z,84.72
2023-01-17T02:52:28.925Z,84.09
2023-01-17T02:53:28.938Z,84.41
2023-01-17T02:54:28.897Z,84.41
2023-01-17T02:55:28.899Z,84.92
2023-01-17T02:56:28.985Z,83.68
2023-01-17T02:57:28.876Z,83.26
2023-01-17T02:58:28.861Z,83.47
2023-01-17T02:59:28.891Z,84.09
2023-01-17T03:00:28.904Z,84.51
2023-01-17T03:01:28.884Z,84.20
2023-01-17T03:02:28.934Z,83.68
2023-01-17T03:03:28.867Z,83.78
2023-01-17T03:04:28.808Z,84.92
2023-01-17T03:05:28.807Z,84.20
2023-01-17T03:06:28.781Z,83.58
2023-01-17T03:07:28.799Z,83.78
2023-01-17T03:08:28.767Z,83.89
2023-01-17T03:09:28.791Z,83.99
2023-01-17T03:10:28.767Z,84.09
2023-01-17T03:11:28.727Z,84.30
2023-01-17T03:12:28.769Z,84.09
2023-01-17T03:13:28.703Z,84.30
2023-01-17T03:14:28.694Z,83.99
2023-01-17T03:15:28.701Z,83.89
2023-01-17T03:16:28.741Z,83.78
2023-01-17T03:17:28.697Z,84.09
2023-01-17T03:18:28.674Z,84.92
2023-01-17T03:19:28.656Z,85.03
2023-01-17T03:20:28.675Z,84.82
2023-01-17T03:21:28.651Z,84.61
2023-01-17T03:22:28.634Z,84.61
2023-01-17T03:23:28.648Z,84.61
2023-01-17T03:24:28.605Z,84.72
2023-01-17T03:25:28.623Z,85.13
2023-01-17T03:26:28.601Z,84.82
2023-01-17T03:27:28.565Z,84.82
2023-01-17T03:28:28.569Z,84.61
2023-01-17T03:29:28.555Z,84.82
2023-01-17T03:30:28.614Z,85.03
2023-01-17T03:31:28.547Z,85.34
2023-01-17T03:32:28.528Z,85.06
2023-01-17T03:33:28.519Z,84.30
2023-01-17T03:34:28.496Z,84.86
2023-01-17T03:35:28.536Z,84.75
2023-01-17T03:36:28.474Z,84.75
2023-01-17T03:37:28.492Z,84.23
2023-01-17T03:38:28.454Z,84.23
2023-01-17T03:39:28.471Z,84.03
2023-01-17T03:40:28.462Z,84.13
2023-01-17T03:41:28.486Z,84.03
2023-01-17T03:42:28.417Z,84.03
2023-01-17T03:43:28.415Z,82.99
2023-01-17T03:44:28.433Z,83.51
2023-01-17T03:45:28.453Z,82.84
2023-01-17T03:46:28.373Z,82.84
2023-01-17T03:47:28.372Z,82.32
2023-01-17T03:48:28.359Z,82.84
2023-01-17T03:49:28.368Z,83.47
2023-01-17T03:50:28.470Z,82.32
2023-01-17T03:51:28.345Z,82.43
2023-01-17T03:52:28.332Z,82.32
2023-01-17T03:53:28.312Z,81.70
2023-01-17T03:54:28.305Z,81.81
2023-01-17T03:55:28.307Z,81.60
2023-01-17T03:56:28.274Z,81.81
2023-01-17T03:57:28.303Z,81.81
2023-01-17T03:58:28.252Z,82.32
2023-01-17T03:59:28.260Z,82.84
2023-01-17T04:00:28.269Z,82.22
2023-01-17T04:01:28.334Z,82.12
2023-01-17T04:02:28.254Z,82.53
2023-01-17T04:03:28.217Z,83.05
2023-01-17T04:04:28.230Z,83.89
2023-01-17T04:05:28.207Z,83.99
2023-01-17T04:06:28.219Z,83.58
2023-01-17T04:07:28.188Z,83.61
2023-01-17T04:08:28.171Z,83.72
2023-01-17T04:09:28.171Z,83.72
2023-01-17T04:10:28.247Z,84.96
2023-01-17T04:11:28.141Z,83.82
2023-01-17T04:12:28.101Z,84.44
2023-01-17T04:13:28.112Z,84.75
2023-01-17T04:14:28.104Z,83.92
2023-01-17T04:15:28.411Z,83.82
2023-01-17T04:16:28.132Z,84.75
2023-01-17T04:17:28.067Z,84.75
2023-01-17T04:18:28.052Z,84.44
2023-01-17T04:19:28.048Z,84.86
2023-01-17T04:20:28.054Z,84.44
2023-01-17T04:21:28.034Z,84.65
2023-01-17T04:22:28.060Z,84.44
2023-01-17T04:23:28.006Z,84.55
2023-01-17T04:24:28.009Z,84.34
2023-01-17T04:25:28.004Z,84.44
2023-01-17T04:26:27.980Z,84.44
2023-01-17T04:27:27.977Z,84.55
2023-01-17T04:28:27.965Z,84.75
2023-01-17T04:29:28.033Z,84.55
2023-01-17T04:30:27.967Z,84.65
2023-01-17T04:31:27.980Z,84.44
2023-01-17T04:32:27.950Z,84.44
2023-01-17T04:33:27.915Z,84.55
2023-01-17T04:34:27.870Z,84.55
2023-01-17T04:35:27.907Z,84.44
2023-01-17T04:36:27.868Z,84.65
2023-01-17T04:37:27.909Z,84.75
2023-01-17T04:38:27.853Z,85.06
2023-01-17T04:39:27.880Z,84.75
2023-01-17T04:40:27.821Z,84.65
2023-01-17T04:41:27.827Z,84.86
2023-01-17T04:42:27.836Z,84.65
2023-01-17T04:43:27.797Z,84.86
2023-01-17T04:44:27.786Z,85.49
2023-01-17T04:45:27.804Z,84.75
2023-01-17T04:46:27.827Z,84.13
2023-01-17T04:47:27.777Z,84.34
2023-01-17T04:48:27.734Z,84.55
2023-01-17T04:49:27.719Z,85.06
2023-01-17T04:50:27.749Z,84.55
2023-01-17T04:51:27.739Z,84.90
2023-01-17T04:52:27.741Z,84.86
2023-01-17T04:53:27.751Z,85.00
2023-01-17T04:54:27.702Z,85.49
2023-01-17T04:55:27.705Z,85.59
2023-01-17T04:56:27.669Z,86.15
2023-01-17T04:57:27.660Z,85.94
2023-01-17T04:58:27.681Z,85.94
2023-01-17T04:59:27.642Z,85.83
2023-01-17T05:00:27.679Z,85.63
2023-01-17T05:01:27.712Z,84.80
2023-01-17T05:02:27.639Z,83.75
2023-01-17T05:03:27.614Z,85.21
2023-01-17T05:04:27.615Z,83.65
2023-01-17T05:05:27.624Z,84.06
2023-01-17T05:06:27.621Z,84.69
2023-01-17T05:07:27.559Z,83.96
2023-01-17T05:08:27.559Z,84.80
2023-01-17T05:09:27.522Z,85.00
2023-01-17T05:10:27.548Z,85.11
2023-01-17T05:11:27.499Z,86.15
2023-01-17T05:12:27.500Z,86.40
2023-01-17T05:13:27.506Z,85.04
2023-01-17T05:14:27.483Z,85.25
2023-01-17T05:15:27.569Z,85.77
2023-01-17T05:16:27.460Z,85.98
2023-01-17T05:17:27.468Z,86.19
2023-01-17T05:18:27.432Z,86.40
2023-01-17T05:19:27.437Z,86.60
2023-01-17T05:20:27.430Z,86.60
2023-01-17T05:21:27.510Z,87.23
2023-01-17T05:22:27.415Z,87.65
2023-01-17T05:23:27.377Z,88.06
2023-01-17T05:24:27.377Z,88.48
2023-01-17T05:25:27.435Z,88.17
2023-01-17T05:26:27.359Z,88.68
2023-01-17T05:27:27.372Z,88.62
2023-01-17T05:28:27.364Z,86.54
2023-01-17T05:29:27.321Z,87.06
2023-01-17T05:30:27.307Z,86.75
2023-01-17T05:31:27.302Z,83.42
2023-01-17T05:32:27.414Z,83.31
2023-01-17T05:33:27.278Z,84.00
2023-01-17T05:34:27.282Z,83.80
2023-01-17T05:35:27.282Z,83.90
2023-01-17T05:36:27.275Z,82.54
2023-01-17T05:37:27.254Z,83.69
2023-01-17T05:38:27.251Z,83.69
2023-01-17T05:39:27.245Z,84.00
2023-01-17T05:40:27.217Z,81.81
2023-01-17T05:41:27.216Z,80.98
2023-01-17T05:42:27.201Z,80.26
2023-01-17T05:43:27.196Z,80.57
2023-01-17T05:44:27.188Z,79.32
2023-01-17T05:45:27.184Z,80.15
2023-01-17T05:46:27.224Z,80.46
2023-01-17T05:47:27.164Z,80.77
2023-01-17T05:48:27.138Z,79.42
2023-01-17T05:49:27.105Z,80.15
2023-01-17T05:50:27.287Z,80.77
2023-01-17T05:51:27.115Z,81.40
2023-01-17T05:52:27.076Z,82.48
2023-01-17T05:53:27.124Z,83.52
2023-01-17T05:54:27.087Z,84.45
2023-01-17T05:55:27.096Z,85.64
2023-01-17T05:56:27.046Z,86.89
2023-01-17T05:57:27.034Z,87.87
2023-01-17T05:58:27.035Z,88.49
2023-01-17T05:59:36.684Z,89.47
2023-01-17T06:00:27.053Z,90.52
2023-01-17T06:01:27.033Z,90.87
2023-01-17T06:02:27.018Z,91.71
2023-01-17T06:03:27.012Z,92.65
2023-01-17T06:04:27.138Z,92.44
2023-01-17T06:05:26.943Z,92.37
2023-01-17T06:06:26.982Z,92.79
2023-01-17T06:07:26.917Z,93.52
2023-01-17T06:08:26.955Z,94.19
2023-01-17T06:09:26.916Z,94.71
2023-01-17T06:10:26.928Z,95.13
2023-01-17T06:11:26.904Z,95.65
2023-01-17T06:12:26.862Z,95.86
2023-01-17T06:13:26.876Z,96.28
2023-01-17T06:14:26.862Z,96.53
2023-01-17T06:15:26.873Z,96.74
2023-01-17T06:16:26.882Z,96.84
2023-01-17T06:17:26.823Z,96.84
2023-01-17T06:18:26.841Z,96.95
2023-01-17T06:19:26.834Z,96.95
2023-01-17T06:20:26.838Z,97.16
2023-01-17T06:21:26.819Z,97.37
2023-01-17T06:22:26.802Z,97.47
2023-01-17T06:23:26.783Z,97.47
2023-01-17T06:24:26.758Z,97.68
2023-01-17T06:25:26.737Z,97.68
2023-01-17T06:26:26.743Z,97.72
2023-01-17T06:27:26.792Z,98.04
2023-01-17T06:28:26.763Z,98.25
2023-01-17T06:29:26.708Z,98.46
2023-01-17T06:30:26.710Z,98.77
2023-01-17T06:31:26.787Z,98.98
2023-01-17T06:32:26.673Z,99.08
2023-01-17T06:33:26.689Z,99.29
2023-01-17T06:34:26.658Z,99.51
2023-01-17T06:35:26.645Z,99.51
2023-01-17T06:36:26.678Z,99.51
2023-01-17T06:37:26.708Z,99.40
2023-01-17T06:38:26.607Z,99.40
2023-01-17T06:39:26.613Z,99.40
2023-01-17T06:40:26.602Z,99.29
2023-01-17T06:41:26.630Z,99.19
2023-01-17T06:42:26.576Z,99.29
2023-01-17T06:43:26.568Z,99.08
2023-01-17T06:44:26.558Z,99.08
2023-01-17T06:45:26.577Z,99.19
2023-01-17T06:46:26.593Z,99.19
2023-01-17T06:47:26.584Z,99.19
2023-01-17T06:48:26.556Z,99.29
2023-01-17T06:49:26.527Z,99.29
2023-01-17T06:50:26.487Z,99.29
2023-01-17T06:51:26.507Z,99.29
2023-01-17T06:52:26.492Z,99.29
2023-01-17T06:53:26.477Z,99.40
2023-01-17T06:54:26.421Z,99.51
2023-01-17T06:55:26.389Z,99.61
2023-01-17T06:56:26.481Z,99.51
2023-01-17T06:57:26.432Z,99.61
2023-01-17T06:58:26.451Z,99.82
2023-01-17T06:59:26.395Z,99.82
2023-01-17T07:00:26.431Z,99.92
2023-01-17T07:01:26.516Z,99.99
2023-01-17T07:02:26.407Z,99.99
2023-01-17T07:03:26.340Z,99.99
2023-01-17T07:04:26.322Z,99.99
2023-01-17T07:05:26.333Z,99.99
2023-01-17T07:06:26.307Z,99.99
2023-01-17T07:07:26.293Z,99.99
2023-01-17T07:08:26.303Z,99.99
2023-01-17T07:09:26.328Z,99.99
2023-01-17T07:10:26.258Z,99.99
2023-01-17T07:11:26.268Z,99.99
2023-01-17T07:12:26.250Z,99.99
2023-01-17T07:13:26.225Z,99.99
2023-01-17T07:14:26.255Z,99.99
2023-01-17T07:15:26.195Z,99.99
2023-01-17T07:16:26.247Z,99.99
2023-01-17T07:17:26.196Z,99.99
2023-01-17T07:18:26.210Z,99.92
2023-01-17T07:19:26.157Z,99.82
2023-01-17T07:20:26.190Z,99.71
2023-01-17T07:21:26.177Z,99.51
2023-01-17T07:22:26.152Z,99.71
2023-01-17T07:23:26.137Z,99.71
2023-01-17T07:24:26.147Z,99.40
2023-01-17T07:25:27.757Z,99.19
2023-01-17T07:26:26.162Z,98.67
2023-01-17T07:27:26.103Z,98.56
2023-01-17T07:28:26.079Z,98.41
2023-01-17T07:29:26.063Z,98.41
2023-01-17T07:30:26.055Z,98.52
2023-01-17T07:31:26.127Z,98.10
2023-01-17T07:32:26.052Z,98.10
2023-01-17T07:33:26.043Z,98.10
2023-01-17T07:34:26.018Z,98.21
2023-01-17T07:35:26.015Z,98.10
2023-01-17T07:36:26.056Z,97.99
2023-01-17T07:37:25.999Z,97.89
2023-01-17T07:38:25.984Z,97.99
2023-01-17T07:39:25.994Z,98.41
2023-01-17T07:40:26.005Z,98.21
2023-01-17T07:41:25.973Z,97.01
2023-01-17T07:42:25.934Z,96.17
2023-01-17T07:43:25.916Z,95.23
2023-01-17T07:44:25.971Z,95.76
2023-01-17T07:45:25.905Z,96.07
2023-01-17T07:46:26.006Z,94.82
2023-01-17T07:47:25.873Z,95.34
2023-01-17T07:48:25.874Z,94.92
2023-01-17T07:49:25.869Z,94.88
2023-01-17T07:50:25.917Z,94.92
2023-01-17T07:51:25.864Z,94.25
2023-01-17T07:52:25.843Z,94.67
2023-01-17T07:53:25.841Z,94.46
2023-01-17T07:54:25.900Z,94.67
2023-01-17T07:55:25.806Z,93.94
2023-01-17T07:56:25.819Z,93.73
2023-01-17T07:57:25.779Z,93.52
2023-01-17T07:58:25.790Z,93.84
2023-01-17T07:59:40.969Z,93.84
2023-01-17T08:00:25.832Z,94.04
2023-01-17T08:01:27.566Z,94.25
2023-01-17T08:02:25.737Z,93.84
2023-01-17T08:03:25.728Z,94.25
2023-01-17T08:04:25.743Z,94.25
2023-01-17T08:05:25.720Z,94.15
2023-01-17T08:06:25.716Z,94.04
2023-01-17T08:07:25.692Z,94.15
2023-01-17T08:08:25.683Z,94.25
2023-01-17T08:09:25.681Z,94.67
2023-01-17T08:10:25.752Z,94.04
2023-01-17T08:11:25.662Z,93.63
2023-01-17T08:12:25.641Z,94.04
2023-01-17T08:13:25.636Z,93.52
2023-01-17T08:14:25.627Z,93.94
2023-01-17T08:15:25.634Z,94.78
2023-01-17T08:16:25.642Z,93.63
2023-01-17T08:17:25.641Z,93.73
2023-01-17T08:18:25.603Z,93.63
2023-01-17T08:19:25.572Z,94.04
2023-01-17T08:20:27.703Z,94.25
2023-01-17T08:21:25.651Z,94.15
2023-01-17T08:22:25.537Z,94.10
2023-01-17T08:23:25.568Z,94.52
2023-01-17T08:24:25.547Z,94.42
2023-01-17T08:25:25.541Z,94.21
2023-01-17T08:26:25.570Z,94.63
2023-01-17T08:27:25.503Z,93.79
2023-01-17T08:28:25.489Z,93.48
2023-01-17T08:29:25.476Z,93.06
2023-01-17T08:30:25.504Z,93.48
2023-01-17T08:31:25.543Z,93.79
2023-01-17T08:32:25.462Z,93.27
2023-01-17T08:33:25.436Z,94.42
2023-01-17T08:34:25.420Z,95.04
2023-01-17T08:35:25.420Z,94.63
2023-01-17T08:36:25.443Z,94.94
2023-01-17T08:37:25.405Z,94.94
2023-01-17T08:38:25.388Z,93.90
2023-01-17T08:39:25.383Z,93.06
2023-01-17T08:40:25.376Z,93.06
2023-01-17T08:41:25.346Z,93.48
2023-01-17T08:42:25.389Z,93.48
2023-01-17T08:43:25.320Z,93.79
2023-01-17T08:44:25.336Z,93.06
2023-01-17T08:45:25.315Z,92.65
2023-01-17T08:46:25.305Z,92.85
2023-01-17T08:47:25.320Z,92.85
2023-01-17T08:48:25.306Z,92.22
2023-01-17T08:49:25.277Z,92.44
2023-01-17T08:50:25.280Z,92.96
2023-01-17T08:51:25.260Z,93.06
2023-01-17T08:52:25.354Z,92.96
2023-01-17T08:53:25.237Z,94.00
2023-01-17T08:54:25.253Z,94.63
2023-01-17T08:55:25.343Z,94.48
2023-01-17T08:56:25.208Z,93.85
2023-01-17T08:57:25.225Z,92.81
2023-01-17T08:58:25.182Z,94.17
2023-01-17T08:59:25.185Z,93.33
2023-01-17T09:00:25.197Z,92.50
2023-01-17T09:01:25.293Z,93.65
2023-01-17T09:02:25.166Z,91.81
2023-01-17T09:03:25.161Z,91.91
2023-01-17T09:04:25.219Z,92.60
2023-01-17T09:05:25.131Z,92.40
2023-01-17T09:06:25.119Z,92.65
2023-01-17T09:07:25.105Z,92.54
2023-01-17T09:08:25.093Z,92.02
2023-01-17T09:09:25.080Z,92.22
2023-01-17T09:10:25.101Z,93.12
2023-01-17T09:11:25.058Z,92.96
2023-01-17T09:12:25.060Z,92.81
2023-01-17T09:13:25.037Z,93.16
2023-01-17T09:14:25.057Z,92.75
2023-01-17T09:15:25.004Z,93.12
2023-01-17T09:16:25.045Z,92.22
2023-01-17T09:17:25.033Z,92.54
2023-01-17T09:18:24.980Z,91.50
2023-01-17T09:19:24.997Z,91.50
2023-01-17T09:20:24.964Z,92.12
2023-01-17T09:21:24.944Z,92.85
2023-01-17T09:22:24.986Z,91.60
2023-01-17T09:23:24.953Z,91.87
2023-01-17T09:24:24.922Z,92.44
2023-01-17T09:25:24.927Z,92.22
2023-01-17T09:26:24.903Z,91.71
2023-01-17T09:27:24.948Z,90.66
2023-01-17T09:28:24.917Z,91.39
2023-01-17T09:29:24.892Z,92.02
2023-01-17T09:30:24.979Z,92.02
2023-01-17T09:31:24.862Z,92.44
2023-01-17T09:32:24.867Z,92.60
2023-01-17T09:33:24.890Z,93.23
2023-01-17T09:34:25.112Z,93.54
2023-01-17T09:35:24.836Z,92.08
2023-01-17T09:36:24.792Z,91.77
2023-01-17T09:37:24.847Z,91.56
2023-01-17T09:38:24.776Z,91.66
2023-01-17T09:39:24.805Z,92.25
2023-01-17T09:40:24.801Z,92.77
2023-01-17T09:41:24.792Z,90.37
2023-01-17T09:42:24.787Z,91.93
2023-01-17T09:43:24.756Z,90.89
2023-01-17T09:44:24.745Z,90.12
2023-01-17T09:45:24.735Z,89.12
2023-01-17T09:46:24.724Z,88.81
2023-01-17T09:47:24.784Z,90.12
2023-01-17T09:48:24.679Z,91.78
2023-01-17T09:49:24.672Z,88.76
2023-01-17T09:50:24.664Z,90.54
2023-01-17T09:51:24.672Z,88.66
2023-01-17T09:52:24.684Z,88.56
2023-01-17T09:53:24.637Z,90.33
2023-01-17T09:54:24.694Z,88.98
2023-01-17T09:55:24.646Z,88.14
2023-01-17T09:56:24.614Z,88.73
2023-01-17T09:57:24.624Z,88.93
2023-01-17T09:58:24.597Z,88.56
2023-01-17T09:59:32.748Z,89.87
2023-01-17T10:00:24.602Z,89.98
2023-01-17T10:01:24.737Z,87.68
2023-01-17T10:02:26.534Z,89.56
2023-01-17T10:03:24.625Z,89.66
2023-01-17T10:04:24.608Z,89.45
2023-01-17T10:05:24.573Z,89.91
2023-01-17T10:06:24.534Z,88.56
2023-01-17T10:07:24.549Z,87.52
2023-01-17T10:08:24.513Z,88.24
2023-01-17T10:09:24.484Z,88.66
2023-01-17T10:10:24.462Z,89.60
2023-01-17T10:11:24.494Z,89.91
2023-01-17T10:12:24.528Z,88.76
2023-01-17T10:13:24.667Z,88.66
2023-01-17T10:14:24.453Z,89.50
2023-01-17T10:15:24.485Z,88.87
2023-01-17T10:16:24.492Z,89.08
2023-01-17T10:17:24.447Z,90.64
2023-01-17T10:18:29.989Z,86.99
2023-01-17T10:19:24.399Z,85.96
2023-01-17T10:20:24.414Z,87.30
2023-01-17T10:21:24.456Z,87.48
2023-01-17T10:22:24.407Z,85.31
2023-01-17T10:23:24.370Z,84.55
2023-01-17T10:24:24.348Z,84.65
2023-01-17T10:25:24.356Z,86.07
2023-01-17T10:26:24.301Z,83.37
2023-01-17T10:27:24.329Z,83.43
2023-01-17T10:28:24.315Z,82.46
2023-01-17T10:29:24.285Z,80.69
2023-01-17T10:30:24.284Z,80.90
2023-01-17T10:31:24.271Z,82.94
2023-01-17T10:32:24.310Z,81.24
2023-01-17T10:33:24.332Z,81.04
2023-01-17T10:34:24.224Z,80.73
2023-01-17T10:35:24.257Z,78.55
2023-01-17T10:36:24.218Z,77.61
2023-01-17T10:37:24.329Z,78.34
2023-01-17T10:38:24.203Z,78.65
2023-01-17T10:39:24.221Z,77.51
2023-01-17T10:40:24.188Z,75.95
2023-01-17T10:41:24.201Z,76.12
2023-01-17T10:42:24.205Z,72.11
2023-01-17T10:43:24.207Z,71.62
2023-01-17T10:44:24.137Z,76.19
2023-01-17T10:45:24.125Z,75.19
2023-01-17T10:46:24.162Z,74.77
2023-01-17T10:47:24.156Z,72.04
2023-01-17T10:48:24.107Z,72.14
2023-01-17T10:49:24.060Z,73.00
2023-01-17T10:50:24.043Z,72.83
2023-01-17T10:51:24.072Z,75.36
2023-01-17T10:52:24.082Z,73.60
2023-01-17T10:53:24.068Z,74.11
2023-01-17T10:54:24.033Z,73.60
2023-01-17T10:55:24.233Z,75.22
2023-01-17T10:56:24.022Z,74.39
2023-01-17T10:57:24.065Z,72.69
2023-01-17T10:58:23.983Z,74.57
2023-01-17T10:59:23.979Z,73.53
2023-01-17T11:00:23.949Z,73.22
2023-01-17T11:01:24.205Z,73.87
2023-01-17T11:02:24.042Z,75.54
2023-01-17T11:03:24.007Z,74.01
2023-01-17T11:04:23.949Z,75.12
2023-01-17T11:05:23.909Z,75.54
2023-01-17T11:06:23.915Z,74.36
2023-01-17T11:07:23.918Z,72.87
2023-01-17T11:08:23.886Z,71.31
2023-01-17T11:09:23.889Z,71.52
2023-01-17T11:10:23.883Z,72.63
2023-01-17T11:11:23.898Z,74.05
2023-01-17T11:12:23.886Z,73.11
2023-01-17T11:13:23.847Z,75.05
2023-01-17T11:14:23.861Z,69.04
2023-01-17T11:15:23.827Z,68.52
2023-01-17T11:16:25.072Z,66.99
2023-01-17T11:17:23.813Z,68.44
2023-01-17T11:18:23.777Z,70.18
2023-01-17T11:19:23.818Z,72.15
2023-01-17T11:20:23.795Z,68.07
2023-01-17T11:21:23.753Z,69.18
2023-01-17T11:22:23.788Z,67.83
2023-01-17T11:23:23.760Z,70.08
2023-01-17T11:24:23.732Z,67.57
2023-01-17T11:25:23.714Z,66.53
2023-01-17T11:26:23.688Z,63.84
2023-01-17T11:27:23.716Z,63.04
2023-01-17T11:28:23.674Z,64.49
2023-01-17T11:29:23.696Z,64.11
2023-01-17T11:30:23.651Z,65.04
2023-01-17T11:31:23.696Z,65.22
2023-01-17T11:32:23.651Z,63.64
2023-01-17T11:33:23.659Z,61.57
2023-01-17T11:34:23.669Z,62.94
2023-01-17T11:35:23.634Z,63.60
2023-01-17T11:36:23.627Z,67.09
2023-01-17T11:37:23.591Z,62.69
2023-01-17T11:38:23.586Z,60.86
2023-01-17T11:39:23.571Z,62.51
2023-01-17T11:40:23.532Z,61.97
2023-01-17T11:41:23.532Z,60.68
2023-01-17T11:42:23.744Z,60.30
2023-01-17T11:43:23.524Z,61.87
2023-01-17T11:44:23.516Z,63.64
2023-01-17T11:45:23.476Z,61.69
2023-01-17T11:46:23.512Z,63.17
2023-01-17T11:47:23.493Z,63.56
2023-01-17T11:48:23.491Z,63.92
2023-01-17T11:49:23.461Z,63.09
2023-01-17T11:50:23.435Z,63.78
2023-01-17T11:51:23.421Z,62.13
2023-01-17T11:52:23.406Z,64.02
2023-01-17T11:53:23.440Z,63.71
2023-01-17T11:54:23.620Z,62.23
2023-01-17T11:55:23.393Z,62.44
2023-01-17T11:56:23.405Z,61.92
2023-01-17T11:57:23.411Z,62.49
2023-01-17T11:58:23.358Z,62.63
2023-01-17T11:59:23.409Z,63.20
2023-01-17T12:00:23.356Z,64.97
2023-01-17T12:01:23.441Z,64.07
2023-01-17T12:02:23.332Z,62.39
2023-01-17T12:03:23.433Z,61.98
2023-01-17T12:04:23.339Z,63.69
2023-01-17T12:05:23.318Z,62.81
2023-01-17T12:06:23.311Z,59.34
2023-01-17T12:07:23.324Z,58.51
2023-01-17T12:08:23.273Z,59.86
2023-01-17T12:09:23.255Z,63.23
2023-01-17T12:10:23.254Z,65.03
2023-01-17T12:11:23.236Z,65.65
2023-01-17T12:12:23.221Z,66.47
2023-01-17T12:13:23.233Z,65.23
2023-01-17T12:14:23.210Z,66.41
2023-01-17T12:15:23.180Z,64.75
2023-01-17T12:16:23.167Z,64.12
2023-01-17T12:17:23.196Z,65.58
2023-01-17T12:18:23.138Z,65.16
2023-01-17T12:19:23.130Z,66.09
2023-01-17T12:20:23.129Z,66.41
2023-01-17T12:21:23.150Z,64.67
2023-01-17T12:22:23.113Z,65.91
2023-01-17T12:23:23.144Z,65.84
2023-01-17T12:24:23.129Z,66.91
2023-01-17T12:25:23.123Z,67.12
2023-01-17T12:26:23.090Z,68.16
2023-01-17T12:27:23.092Z,68.40
2023-01-17T12:28:23.085Z,69.43
2023-01-17T12:29:23.063Z,69.33
2023-01-17T12:30:23.048Z,70.37
2023-01-17T12:31:23.123Z,68.19
2023-01-17T12:32:23.037Z,68.50
2023-01-17T12:33:23.026Z,69.02
2023-01-17T12:34:23.019Z,69.33
2023-01-17T12:35:22.965Z,69.23
2023-01-17T12:36:23.113Z,70.06
2023-01-17T12:37:22.969Z,71.51
2023-01-17T12:38:32.134Z,72.52
2023-01-17T12:39:22.927Z,70.54
2023-01-17T12:40:22.912Z,69.02
2023-01-17T12:41:22.894Z,69.85
2023-01-17T12:42:22.886Z,69.64
2023-01-17T12:43:22.893Z,69.74
2023-01-17T12:44:22.867Z,69.57
2023-01-17T12:45:22.871Z,69.37
2023-01-17T12:46:22.867Z,70.09
2023-01-17T12:47:22.846Z,70.09
2023-01-17T12:48:22.841Z,70.72
2023-01-17T12:49:22.825Z,71.34
2023-01-17T12:50:22.810Z,71.55
2023-01-17T12:51:22.801Z,71.86
2023-01-17T12:52:22.780Z,73.32